createdAt,value
2018-04-12T00:00:42.571Z,76.58
2018-04-12T00:03:08.843Z,78.04
2018-04-12T00:05:35.163Z,79.47
2018-04-12T00:08:01.530Z,80.20
2018-04-12T00:10:27.819Z,79.34
2018-04-12T00:12:54.185Z,79.56
2018-04-12T00:15:20.612Z,79.61
2018-04-12T00:17:47.051Z,80.41
2018-04-12T00:20:13.426Z,80.27
2018-04-12T00:22:40.058Z,79.27
2018-04-12T00:25:06.584Z,78.96
2018-04-12T00:27:32.960Z,77.87
2018-04-12T00:29:59.315Z,76.91
2018-04-12T00:32:25.726Z,76.85
2018-04-12T00:34:52.202Z,75.87
2018-04-12T00:37:18.553Z,75.83
2018-04-12T00:39:44.911Z,75.74
2018-04-12T00:42:11.214Z,74.96
2018-04-12T00:44:37.492Z,74.81
2018-04-12T00:47:03.929Z,74.65
2018-04-12T00:49:30.331Z,74.33
2018-04-12T00:51:56.649Z,74.67
2018-04-12T00:54:22.984Z,74.24
2018-04-12T00:56:49.374Z,74.54
2018-04-12T00:59:15.698Z,75.22
2018-04-12T01:01:42.014Z,74.54
2018-04-12T01:04:08.300Z,74.44
2018-04-12T01:06:35.707Z,76.76
2018-04-12T01:09:02.068Z,77.75
2018-04-12T01:11:28.380Z,77.93
2018-04-12T01:13:54.821Z,78.70
2018-04-12T01:16:21.193Z,79.04
2018-04-12T01:18:47.566Z,78.79
2018-04-12T01:21:13.837Z,79.09
2018-04-12T01:23:40.108Z,80.04
2018-04-12T01:26:06.779Z,81.67
2018-04-12T01:28:33.523Z,82.55
2018-04-12T01:30:59.811Z,81.48
2018-04-12T01:33:26.302Z,81.03
2018-04-12T01:35:52.688Z,80.17
2018-04-12T01:38:18.959Z,81.30
2018-04-12T01:40:45.284Z,82.18
2018-04-12T01:43:11.663Z,82.35
2018-04-12T01:45:38.098Z,81.68
2018-04-12T01:48:04.396Z,80.96
2018-04-12T01:50:30.665Z,81.41
2018-04-12T01:52:57.437Z,82.39
2018-04-12T01:55:23.719Z,82.58
2018-04-12T01:57:50.033Z,82.27
2018-04-12T02:00:16.303Z,83.12
2018-04-12T02:02:42.584Z,83.35
2018-04-12T02:05:08.930Z,83.62
2018-04-12T02:07:36.352Z,83.60
2018-04-12T02:10:02.699Z,83.86
2018-04-12T02:12:28.973Z,83.45
2018-04-12T02:14:55.299Z,82.48
2018-04-12T02:17:21.563Z,81.89
2018-04-12T02:19:47.864Z,81.47
2018-04-12T02:22:18.016Z,81.23
2018-04-12T02:24:44.304Z,80.32
2018-04-12T02:27:10.590Z,79.87
2018-04-12T02:29:37.012Z,79.54
2018-04-12T02:32:03.316Z,78.59
2018-04-12T02:34:29.609Z,78.70
2018-04-12T02:36:55.932Z,79.65
2018-04-12T02:39:22.204Z,80.63
2018-04-12T02:41:48.479Z,80.23
2018-04-12T02:44:18.019Z,79.71
2018-04-12T02:46:44.288Z,79.65
2018-04-12T02:49:10.566Z,78.95
2018-04-12T02:51:37.065Z,79.05
2018-04-12T02:54:03.382Z,78.50
2018-04-12T02:56:29.663Z,78.59
2018-04-12T02:58:56.027Z,78.56
2018-04-12T03:01:22.348Z,77.99
2018-04-12T03:03:48.668Z,77.35
2018-04-12T03:06:15.004Z,76.84
2018-04-12T03:08:41.272Z,77.09
2018-04-12T03:11:07.541Z,77.11
2018-04-12T03:13:34.968Z,78.27
2018-04-12T03:16:01.251Z,79.11
2018-04-12T03:18:27.610Z,79.58
2018-04-12T03:20:53.903Z,79.46
2018-04-12T03:23:20.229Z,78.83
2018-04-12T03:25:46.550Z,79.04
2018-04-12T03:28:12.949Z,79.32
2018-04-12T03:30:39.211Z,79.23
2018-04-12T03:33:05.475Z,79.20
2018-04-12T03:35:32.249Z,79.13
2018-04-12T03:37:58.520Z,79.01
2018-04-12T03:40:24.795Z,78.95
2018-04-12T03:42:51.123Z,80.04
2018-04-12T03:45:17.500Z,80.60
2018-04-12T03:47:43.767Z,80.75
2018-04-12T03:50:10.248Z,81.71
2018-04-12T03:52:39.703Z,80.90
2018-04-12T03:55:06.680Z,80.47
2018-04-12T03:57:33.378Z,80.28
2018-04-12T03:59:59.705Z,79.41
2018-04-12T04:02:26.058Z,78.86
2018-04-12T04:04:52.337Z,78.03
2018-04-12T04:07:18.653Z,79.42
2018-04-12T04:09:44.975Z,80.58
2018-04-12T04:12:11.343Z,82.83
2018-04-12T04:14:49.656Z,83.68
2018-04-12T04:17:28.555Z,83.75
2018-04-12T04:20:07.046Z,83.08
2018-04-12T04:22:33.512Z,83.24
2018-04-12T04:25:02.981Z,83.22
2018-04-12T04:27:29.275Z,82.55
2018-04-12T04:29:55.635Z,82.01
2018-04-12T04:32:21.910Z,80.82
2018-04-12T04:34:48.204Z,80.18
2018-04-12T04:37:14.976Z,80.78
2018-04-12T04:39:41.246Z,81.08
2018-04-12T04:42:07.630Z,80.31
2018-04-12T04:44:33.945Z,80.14
2018-04-12T04:47:00.323Z,79.34
2018-04-12T04:49:26.652Z,78.46
2018-04-12T04:51:52.984Z,78.01
2018-04-12T04:54:20.125Z,77.32
2018-04-12T04:56:46.520Z,76.14
2018-04-12T04:59:12.793Z,75.25
2018-04-12T05:01:39.124Z,74.56
2018-04-12T05:04:05.448Z,74.09
2018-04-12T05:06:32.411Z,72.99
2018-04-12T05:08:58.729Z,72.21
2018-04-12T05:11:25.252Z,69.81
2018-04-12T05:13:51.611Z,70.22
2018-04-12T05:16:17.879Z,69.85
2018-04-12T05:18:44.172Z,71.22
2018-04-12T05:21:10.494Z,71.27
2018-04-12T05:23:37.793Z,73.37
2018-04-12T05:26:04.124Z,73.69
2018-04-12T05:28:30.705Z,73.01
2018-04-12T05:30:57.081Z,71.11
2018-04-12T05:33:23.375Z,69.96
2018-04-12T05:35:49.666Z,68.17
2018-04-12T05:38:31.004Z,68.20
2018-04-12T05:40:57.300Z,68.13
2018-04-12T05:43:23.652Z,67.10
2018-04-12T05:45:50.281Z,65.89
2018-04-12T05:48:16.927Z,66.46
2018-04-12T05:50:43.208Z,66.54
2018-04-12T05:53:09.672Z,67.53
2018-04-12T05:55:35.941Z,67.27
2018-04-12T05:58:02.236Z,67.79
2018-04-12T06:00:28.579Z,68.71
2018-04-12T06:02:54.852Z,66.81
2018-04-12T06:05:21.140Z,67.07
2018-04-12T06:07:47.876Z,65.51
2018-04-12T06:10:14.493Z,64.39
2018-04-12T06:12:40.790Z,63.48
2018-04-12T06:15:07.082Z,62.75
2018-04-12T06:17:33.414Z,62.65
2018-04-12T06:19:59.687Z,61.39
2018-04-12T06:22:25.955Z,64.16
2018-04-12T06:24:52.703Z,63.91
2018-04-12T06:27:18.987Z,63.13
2018-04-12T06:29:45.256Z,62.68
2018-04-12T06:32:11.590Z,60.86
2018-04-12T06:34:37.901Z,59.49
2018-04-12T06:37:04.196Z,58.64
2018-04-12T06:39:30.556Z,58.38
2018-04-12T06:41:56.828Z,58.94
2018-04-12T06:44:23.185Z,57.98
2018-04-12T06:46:49.995Z,57.00
2018-04-12T06:49:16.439Z,57.25
2018-04-12T06:51:42.729Z,56.30
2018-04-12T06:54:09.163Z,54.77
2018-04-12T06:56:35.799Z,56.16
2018-04-12T06:59:02.085Z,56.78
2018-04-12T07:01:31.656Z,56.32
2018-04-12T07:03:57.956Z,56.36
2018-04-12T07:06:24.231Z,56.43
2018-04-12T07:08:50.567Z,52.74
2018-04-12T07:11:16.868Z,52.82
2018-04-12T07:13:43.292Z,52.70
2018-04-12T07:16:09.574Z,52.11
2018-04-12T07:18:35.860Z,51.53
2018-04-12T07:21:02.412Z,51.37
2018-04-12T07:23:28.703Z,50.12
2018-04-12T07:25:55.047Z,50.79
2018-04-12T07:28:21.328Z,51.24
2018-04-12T07:30:47.619Z,51.52
2018-04-12T07:33:14.168Z,51.85
2018-04-12T07:35:40.459Z,49.71
2018-04-12T07:38:06.796Z,50.38
2018-04-12T07:40:33.281Z,50.75
2018-04-12T07:42:59.567Z,49.38
2018-04-12T07:45:28.668Z,49.45
2018-04-12T07:47:54.996Z,48.87
2018-04-12T07:50:21.396Z,47.46
2018-04-12T07:52:47.759Z,47.59
2018-04-12T07:55:14.039Z,47.90
2018-04-12T07:57:40.366Z,48.42
2018-04-12T08:00:06.756Z,47.00
2018-04-12T08:02:33.112Z,46.48
2018-04-12T08:04:59.397Z,47.09
2018-04-12T08:07:25.845Z,46.78
2018-04-12T08:09:58.150Z,45.61
2018-04-12T08:12:24.488Z,44.86
2018-04-12T08:14:50.997Z,45.26
2018-04-12T08:17:17.373Z,44.61
2018-04-12T08:19:43.762Z,43.41
2018-04-12T08:22:10.036Z,42.04
2018-04-12T08:24:36.337Z,42.48
2018-04-12T08:27:02.607Z,41.99
2018-04-12T08:29:28.984Z,40.65
2018-04-12T08:31:55.271Z,40.79
2018-04-12T08:34:21.547Z,40.22
2018-04-12T08:36:47.931Z,39.93
2018-04-12T08:39:14.207Z,38.73
2018-04-12T08:41:40.493Z,38.73
2018-04-12T08:44:06.886Z,38.18
2018-04-12T08:46:33.688Z,37.22
2018-04-12T08:49:00.504Z,39.30
2018-04-12T08:51:27.280Z,38.41
2018-04-12T08:53:53.622Z,37.50
2018-04-12T08:56:20.010Z,37.63
2018-04-12T08:58:46.311Z,36.48
2018-04-12T09:01:12.604Z,35.69
2018-04-12T09:03:38.932Z,36.13
2018-04-12T09:06:05.246Z,36.86
2018-04-12T09:08:31.547Z,37.05
2018-04-12T09:10:57.948Z,37.19
2018-04-12T09:13:24.939Z,37.37
2018-04-12T09:15:51.220Z,35.87
2018-04-12T09:18:17.506Z,34.96
2018-04-12T09:20:43.853Z,35.95
2018-04-12T09:23:10.160Z,34.99
2018-04-12T09:25:36.488Z,34.97
2018-04-12T09:28:02.759Z,34.69
2018-04-12T09:30:29.046Z,34.80
2018-04-12T09:32:55.417Z,34.67
2018-04-12T09:35:21.711Z,35.92
2018-04-12T09:37:48.019Z,35.85
2018-04-12T09:40:14.417Z,34.61
2018-04-12T09:42:40.771Z,34.75
2018-04-12T09:45:07.067Z,34.71
2018-04-12T09:47:33.345Z,34.80
2018-04-12T09:49:59.635Z,35.39
2018-04-12T09:52:26.107Z,34.46
2018-04-12T09:54:52.430Z,33.65
2018-04-12T09:57:18.808Z,34.08
2018-04-12T09:59:45.089Z,33.69
2018-04-12T10:02:11.428Z,34.17
2018-04-12T10:04:43.884Z,32.85
2018-04-12T10:07:10.206Z,32.51
2018-04-12T10:09:36.502Z,34.01
2018-04-12T10:12:02.845Z,31.24
2018-04-12T10:14:29.160Z,30.24
2018-04-12T10:16:55.430Z,29.12
2018-04-12T10:19:21.886Z,27.73
2018-04-12T10:21:48.178Z,26.92
2018-04-12T10:24:14.554Z,26.52
2018-04-12T10:26:40.884Z,26.21
2018-04-12T10:29:07.191Z,25.87
2018-04-12T10:31:33.627Z,28.29
2018-04-12T10:33:59.894Z,27.88
2018-04-12T10:36:26.211Z,24.76
2018-04-12T10:38:52.626Z,24.37
2018-04-12T10:41:18.913Z,26.81
2018-04-12T10:43:45.268Z,24.76
2018-04-12T10:46:11.680Z,24.15
2018-04-12T10:48:38.010Z,25.44
2018-04-12T10:51:04.467Z,25.70
2018-04-12T10:53:31.000Z,27.23
2018-04-12T10:55:57.347Z,24.26
2018-04-12T10:58:24.150Z,22.37
2018-04-12T11:00:50.537Z,24.52
2018-04-12T11:03:16.918Z,25.19
2018-04-12T11:05:43.235Z,24.67
2018-04-12T11:08:09.579Z,24.58
2018-04-12T11:10:35.855Z,25.11
2018-04-12T11:13:02.153Z,25.25
2018-04-12T11:15:28.468Z,24.48
2018-04-12T11:17:54.734Z,22.36
2018-04-12T11:20:21.029Z,22.87
2018-04-12T11:22:47.558Z,21.30
2018-04-12T11:25:13.868Z,20.93
2018-04-12T11:27:40.240Z,21.56
2018-04-12T11:30:06.552Z,22.45
2018-04-12T11:32:32.837Z,22.89
2018-04-12T11:34:59.180Z,22.89
2018-04-12T11:37:25.471Z,20.63
2018-04-12T11:39:51.741Z,20.13
2018-04-12T11:42:18.164Z,18.15
2018-04-12T11:44:46.152Z,19.66
2018-04-12T11:47:12.434Z,19.29
2018-04-12T11:49:38.738Z,17.92
2018-04-12T11:52:05.141Z,18.67
2018-04-12T11:54:31.447Z,21.62
2018-04-12T11:56:57.775Z,19.65
2018-04-12T11:59:24.063Z,18.94
2018-04-12T12:01:50.413Z,19.92
2018-04-12T12:04:16.827Z,17.59
2018-04-12T12:06:43.132Z,21.43
2018-04-12T12:09:09.547Z,18.81
2018-04-12T12:11:35.830Z,18.86
2018-04-12T12:14:02.112Z,18.63
2018-04-12T12:16:28.500Z,19.72
2018-04-12T12:18:54.786Z,20.11
2018-04-12T12:21:21.103Z,20.20
2018-04-12T12:23:47.467Z,18.55
2018-04-12T12:26:13.765Z,19.62
2018-04-12T12:28:40.044Z,18.41
2018-04-12T12:31:06.385Z,17.99
2018-04-12T12:33:32.704Z,20.63
2018-04-12T12:35:58.978Z,19.79
2018-04-12T12:38:25.722Z,17.84
2018-04-12T12:40:52.224Z,17.37
2018-04-12T12:43:18.525Z,18.05
2018-04-12T12:45:44.838Z,20.48
2018-04-12T12:48:11.137Z,18.22
2018-04-12T12:50:37.419Z,18.74
2018-04-12T12:53:03.811Z,18.27
2018-04-12T12:55:30.112Z,20.45
2018-04-12T12:57:56.464Z,19.66
2018-04-12T13:00:22.891Z,18.45
2018-04-12T13:02:49.314Z,20.12
2018-04-12T13:05:15.639Z,20.51
2018-04-12T13:07:41.954Z,18.51
2018-04-12T13:10:08.456Z,19.46
2018-04-12T13:12:34.775Z,18.15
2018-04-12T13:15:01.117Z,17.87
2018-04-12T13:17:27.423Z,18.96
2018-04-12T13:19:53.785Z,17.86
2018-04-12T13:22:20.107Z,17.82
2018-04-12T13:27:40.779Z,18.07
2018-04-12T13:30:07.238Z,17.88
2018-04-12T13:32:33.568Z,17.07
2018-04-12T13:35:00.030Z,18.14
2018-04-12T13:37:26.459Z,17.99
2018-04-12T13:39:52.808Z,17.44
2018-04-12T13:42:19.148Z,18.49
2018-04-12T13:44:45.510Z,17.15
2018-04-12T13:47:11.827Z,16.90
2018-04-12T13:49:38.187Z,17.43
2018-04-12T13:52:04.586Z,17.39
2018-04-12T13:54:30.919Z,16.54
2018-04-12T13:56:57.403Z,16.96
2018-04-12T13:59:23.750Z,16.23
2018-04-12T14:01:50.120Z,15.60
2018-04-12T14:04:16.536Z,15.06
2018-04-12T14:06:42.866Z,16.31
2018-04-12T14:09:09.184Z,15.67
2018-04-12T14:11:35.501Z,15.16
2018-04-12T14:14:01.808Z,14.72
2018-04-12T14:16:28.098Z,13.80
2018-04-12T14:18:54.494Z,14.68
2018-04-12T14:21:20.772Z,14.44
2018-04-12T14:23:47.052Z,13.46
2018-04-12T14:26:13.369Z,14.52
2018-04-12T14:28:39.737Z,13.35
2018-04-12T14:31:06.156Z,14.41
2018-04-12T14:33:35.313Z,13.98
2018-04-12T14:36:01.632Z,13.94
2018-04-12T14:38:28.192Z,14.29
2018-04-12T14:40:54.472Z,15.92
2018-04-12T14:43:20.774Z,16.32
2018-04-12T14:45:47.131Z,16.98
2018-04-12T14:48:13.411Z,17.03
2018-04-12T14:50:39.699Z,17.42
2018-04-12T14:53:06.033Z,17.71
2018-04-12T14:55:32.324Z,17.21
2018-04-12T14:57:58.614Z,18.86
2018-04-12T15:00:25.347Z,18.98
2018-04-12T15:02:51.652Z,20.69
2018-04-12T15:05:18.071Z,22.66
2018-04-12T15:07:44.360Z,23.72
2018-04-12T15:10:10.648Z,24.71
2018-04-12T15:12:36.972Z,25.58
2018-04-12T15:15:03.770Z,25.42
2018-04-12T15:17:30.072Z,26.86
2018-04-12T15:19:56.577Z,26.73
2018-04-12T15:22:22.880Z,27.76
2018-04-12T15:24:49.154Z,27.74
2018-04-12T15:27:15.790Z,27.99
2018-04-12T15:29:42.133Z,27.67
2018-04-12T15:32:08.430Z,28.60
2018-04-12T15:34:34.960Z,29.00
2018-04-12T15:37:01.298Z,28.21
2018-04-12T15:39:27.610Z,28.86
2018-04-12T15:41:53.893Z,28.85
2018-04-12T15:44:20.224Z,29.01
2018-04-12T15:46:46.521Z,28.90
2018-04-12T15:49:12.812Z,28.61
2018-04-12T15:51:39.492Z,28.92
2018-04-12T15:54:05.796Z,28.48
2018-04-12T15:56:32.142Z,28.69
2018-04-12T15:58:59.113Z,28.84
2018-04-12T16:01:25.753Z,29.68
2018-04-12T16:03:52.043Z,29.96
2018-04-12T16:06:18.334Z,29.36
2018-04-12T16:08:44.797Z,30.19
2018-04-12T16:11:11.087Z,29.94
2018-04-12T16:13:37.363Z,30.28
2018-04-12T16:16:03.711Z,30.49
2018-04-12T16:18:30.388Z,29.97
2018-04-12T16:20:56.822Z,30.41
2018-04-12T16:23:23.152Z,31.44
2018-04-12T16:25:49.500Z,31.57
2018-04-12T16:28:15.792Z,31.88
2018-04-12T16:30:42.167Z,33.12
2018-04-12T16:33:08.553Z,33.73
2018-04-12T16:35:34.878Z,34.03
2018-04-12T16:38:01.442Z,35.53
2018-04-12T16:40:28.035Z,36.05
2018-04-12T16:42:57.622Z,36.72
2018-04-12T16:45:23.929Z,37.19
2018-04-12T16:47:50.207Z,37.38
2018-04-12T16:50:16.653Z,37.77
2018-04-12T16:52:42.993Z,38.76
2018-04-12T16:55:09.280Z,38.93
2018-04-12T16:57:35.610Z,39.59
2018-04-12T17:00:02.009Z,40.29
2018-04-12T17:02:28.486Z,40.17
2018-04-12T17:04:54.827Z,40.93
2018-04-12T17:07:21.099Z,41.45
2018-04-12T17:09:47.387Z,41.77
2018-04-12T17:12:13.808Z,42.11
2018-04-12T17:14:40.155Z,42.26
2018-04-12T17:17:06.487Z,42.21
2018-04-12T17:19:33.057Z,42.31
2018-04-12T17:21:59.443Z,42.74
2018-04-12T17:24:25.772Z,43.17
2018-04-12T17:26:52.077Z,43.08
2018-04-12T17:29:18.483Z,43.34
2018-04-12T17:31:44.993Z,43.45
2018-04-12T17:34:11.273Z,43.38
2018-04-12T17:36:37.901Z,43.96
2018-04-12T17:39:05.028Z,44.86
2018-04-12T17:41:31.308Z,44.55
2018-04-12T17:43:57.647Z,44.41
2018-04-12T17:46:24.040Z,44.30
2018-04-12T17:48:50.339Z,45.41
2018-04-12T17:51:16.684Z,45.06
2018-04-12T17:53:43.219Z,45.70
2018-04-12T17:56:09.691Z,46.55
2018-04-12T17:58:35.976Z,46.28
2018-04-12T18:01:02.856Z,46.24
2018-04-12T18:03:29.236Z,46.21
2018-04-12T18:05:55.580Z,46.84
2018-04-12T18:08:21.927Z,47.25
2018-04-12T18:10:48.404Z,46.47
2018-04-12T18:13:14.708Z,47.06
2018-04-12T18:15:40.991Z,47.31
2018-04-12T18:18:07.332Z,47.37
2018-04-12T18:20:33.648Z,47.61
2018-04-12T18:22:59.989Z,47.72
2018-04-12T18:25:26.379Z,48.29
2018-04-12T18:27:52.817Z,47.42
2018-04-12T18:30:19.192Z,48.06
2018-04-12T18:32:45.664Z,48.12
2018-04-12T18:35:15.006Z,47.64
2018-04-12T18:37:41.527Z,48.30
2018-04-12T18:40:10.547Z,47.84
2018-04-12T18:42:36.910Z,48.83
2018-04-12T18:45:03.248Z,48.48
2018-04-12T18:47:29.646Z,48.42
2018-04-12T18:49:55.940Z,48.55
2018-04-12T18:52:22.429Z,47.80
2018-04-12T18:54:48.726Z,48.07
2018-04-12T18:57:15.076Z,49.84
2018-04-12T18:59:41.369Z,48.27
2018-04-12T19:02:07.853Z,48.24
2018-04-12T19:04:34.147Z,49.01
2018-04-12T19:07:00.539Z,49.20
2018-04-12T19:09:27.066Z,49.42
2018-04-12T19:11:53.416Z,49.71
2018-04-12T19:14:19.806Z,50.82
2018-04-12T19:16:46.232Z,50.28
2018-04-12T19:19:12.548Z,52.09
2018-04-12T19:21:38.885Z,51.03
2018-04-12T19:24:05.197Z,51.30
2018-04-12T19:26:31.648Z,52.05
2018-04-12T19:28:57.981Z,52.36
2018-04-12T19:31:24.266Z,52.80
2018-04-12T19:33:50.652Z,52.27
2018-04-12T19:36:17.979Z,51.59
2018-04-12T19:38:44.288Z,51.92
2018-04-12T19:44:05.416Z,52.08
2018-04-12T19:46:31.822Z,54.17
2018-04-12T19:48:58.100Z,54.39
2018-04-12T19:51:24.471Z,52.84
2018-04-12T19:53:50.815Z,53.25
2018-04-12T19:56:17.142Z,51.92
2018-04-12T19:58:43.466Z,51.69
2018-04-12T20:01:09.753Z,52.09
2018-04-12T20:03:36.037Z,52.27
2018-04-12T20:06:02.486Z,52.76
2018-04-12T20:08:28.774Z,53.19
2018-04-12T20:10:55.161Z,54.41
2018-04-12T20:13:21.450Z,53.90
2018-04-12T20:15:47.721Z,54.48
2018-04-12T20:18:14.111Z,54.79
2018-04-12T20:20:40.397Z,54.80
2018-04-12T20:23:06.682Z,54.92
2018-04-12T20:25:32.992Z,54.95
2018-04-12T20:27:59.305Z,55.51
2018-04-12T20:30:25.579Z,56.01
2018-04-12T20:32:52.148Z,56.03
2018-04-12T20:35:18.499Z,56.71
2018-04-12T20:37:44.767Z,57.14
2018-04-12T20:40:11.117Z,57.32
2018-04-12T20:42:37.471Z,57.60
2018-04-12T20:45:03.925Z,57.39
2018-04-12T20:47:30.213Z,58.23
2018-04-12T20:49:56.485Z,58.80
2018-04-12T20:52:23.184Z,58.95
2018-04-12T20:54:52.565Z,60.28
2018-04-12T20:57:18.988Z,61.45
2018-04-12T20:59:45.311Z,62.61
2018-04-12T21:02:14.691Z,63.30
2018-04-12T21:04:40.971Z,62.56
2018-04-12T21:07:07.442Z,62.25
2018-04-12T21:09:33.722Z,61.56
2018-04-12T21:12:00.111Z,62.29
2018-04-12T21:14:26.399Z,61.68
2018-04-12T21:16:52.711Z,61.88
2018-04-12T21:19:19.076Z,61.71
2018-04-12T21:21:45.453Z,61.56
2018-04-12T21:24:11.799Z,61.59
2018-04-12T21:26:38.134Z,61.99
2018-04-12T21:29:04.535Z,62.68
2018-04-12T21:31:30.807Z,62.74
2018-04-12T21:33:57.351Z,62.58
2018-04-12T21:36:23.751Z,62.10
2018-04-12T21:38:50.084Z,61.87
2018-04-12T21:41:16.390Z,61.54
2018-04-12T21:43:42.795Z,63.16
2018-04-12T21:46:09.075Z,65.78
2018-04-12T21:48:35.371Z,69.18
2018-04-12T21:51:01.747Z,70.20
2018-04-12T21:53:28.039Z,69.32
2018-04-12T21:55:54.336Z,66.54
2018-04-12T21:58:20.722Z,66.04
2018-04-12T22:00:47.032Z,64.89
2018-04-12T22:03:13.438Z,64.80
2018-04-12T22:05:39.903Z,63.20
2018-04-12T22:08:06.313Z,66.30
2018-04-12T22:10:32.703Z,67.81
2018-04-12T22:13:02.284Z,67.25
2018-04-12T22:15:28.676Z,66.78
2018-04-12T22:17:55.066Z,65.94
2018-04-12T22:20:21.528Z,65.74
2018-04-12T22:22:47.963Z,65.84
2018-04-12T22:25:14.366Z,66.53
2018-04-12T22:27:40.823Z,66.37
2018-04-12T22:30:07.236Z,66.56
2018-04-12T22:32:33.926Z,66.65
2018-04-12T22:35:00.307Z,66.75
2018-04-12T22:37:28.881Z,67.83
2018-04-12T22:39:55.317Z,67.91
2018-04-12T22:42:21.776Z,66.80
2018-04-12T22:44:48.176Z,66.14
2018-04-12T22:47:17.755Z,65.75
2018-04-12T22:49:44.154Z,65.90
2018-04-12T22:52:10.538Z,65.38
2018-04-12T22:54:37.033Z,65.65
2018-04-12T22:57:03.451Z,65.88
2018-04-12T22:59:29.847Z,66.49
2018-04-12T23:01:56.327Z,66.88
2018-04-12T23:04:22.988Z,67.89
2018-04-12T23:06:49.444Z,67.77
2018-04-12T23:09:15.875Z,68.09
2018-04-12T23:11:42.292Z,68.46
2018-04-12T23:14:08.689Z,69.56
2018-04-12T23:16:35.184Z,70.31
2018-04-12T23:19:01.636Z,71.23
2018-04-12T23:21:28.064Z,70.80
2018-04-12T23:23:54.582Z,70.03
2018-04-12T23:26:20.994Z,69.91
2018-04-12T23:28:47.389Z,69.93
2018-04-12T23:31:13.811Z,70.51
2018-04-12T23:33:40.204Z,70.54
2018-04-12T23:36:06.598Z,70.96
2018-04-12T23:38:33.208Z,70.56
2018-04-12T23:40:59.627Z,70.42
2018-04-12T23:43:26.032Z,70.79
2018-04-12T23:45:52.564Z,71.33
2018-04-12T23:48:18.976Z,71.33
2018-04-12T23:50:45.420Z,70.81
2018-04-12T23:53:11.805Z,70.53
2018-04-12T23:55:38.293Z,72.12
2018-04-12T23:58:04.743Z,74.46
